createdAt,value
2022-07-31T00:00:16.819Z,101139.78
2022-07-31T00:02:44.631Z,101128.44
2022-07-31T00:05:11.482Z,101136.34
2022-07-31T00:07:38.130Z,101132.13
2022-07-31T00:10:05.763Z,101143.53
2022-07-31T00:12:32.373Z,101130.84
2022-07-31T00:15:04.133Z,101135.38
2022-07-31T00:17:32.355Z,101135.28
2022-07-31T00:19:58.834Z,101129.13
2022-07-31T00:22:25.294Z,101112.66
2022-07-31T00:24:51.801Z,101118.97
2022-07-31T00:27:18.314Z,101114.66
2022-07-31T00:29:44.794Z,101107.81
2022-07-31T00:32:11.539Z,101116.50
2022-07-31T00:34:38.113Z,101119.94
2022-07-31T00:37:05.199Z,101111.97
2022-07-31T00:39:32.632Z,101115.56
2022-07-31T00:41:59.255Z,101112.25
2022-07-31T00:44:26.040Z,101104.50
2022-07-31T00:46:52.745Z,101112.41
2022-07-31T00:49:20.037Z,101110.44
2022-07-31T00:51:47.074Z,101103.63
2022-07-31T00:54:16.290Z,101103.63
2022-07-31T00:56:49.084Z,101103.56
2022-07-31T00:59:15.674Z,101102.66
2022-07-31T01:01:42.157Z,101099.91
2022-07-31T01:04:08.653Z,101099.03
2022-07-31T01:06:42.786Z,101092.00
2022-07-31T01:09:09.537Z,101091.25
2022-07-31T01:11:44.708Z,101099.13
2022-07-31T01:14:12.136Z,101085.19
2022-07-31T01:16:46.862Z,101098.41
2022-07-31T01:19:43.634Z,101095.03
2022-07-31T01:22:34.242Z,101101.22
2022-07-31T01:25:21.290Z,101103.19
2022-07-31T01:27:50.683Z,101098.88
2022-07-31T01:30:17.647Z,101100.78
2022-07-31T01:32:49.309Z,101096.59
2022-07-31T01:35:20.631Z,101089.72
2022-07-31T01:38:07.858Z,101101.22
2022-07-31T01:40:38.134Z,101094.34
2022-07-31T01:43:11.663Z,101105.00
2022-07-31T01:45:42.785Z,101096.44
2022-07-31T01:48:15.857Z,101090.28
2022-07-31T01:50:45.011Z,101093.88
2022-07-31T01:53:15.213Z,101093.06
2022-07-31T01:56:02.340Z,101093.91
2022-07-31T01:58:34.945Z,101091.38
2022-07-31T02:01:03.798Z,101090.44
2022-07-31T02:03:44.530Z,101093.03
2022-07-31T02:06:18.169Z,101097.41
2022-07-31T02:08:50.541Z,101090.38
2022-07-31T02:11:19.478Z,101079.06
2022-07-31T02:13:47.330Z,101086.94
2022-07-31T02:16:16.510Z,101072.91
2022-07-31T02:18:43.570Z,101083.38
2022-07-31T02:21:10.622Z,101075.50
2022-07-31T02:23:38.545Z,101081.75
2022-07-31T02:26:07.054Z,101081.81
2022-07-31T02:28:38.012Z,101075.75
2022-07-31T02:31:10.187Z,101072.22
2022-07-31T02:33:38.214Z,101067.88
2022-07-31T02:36:06.749Z,101067.88
2022-07-31T02:38:35.138Z,101068.69
2022-07-31T02:41:04.731Z,101062.63
2022-07-31T02:43:33.255Z,101046.91
2022-07-31T02:46:00.520Z,101051.56
2022-07-31T02:48:27.777Z,101048.06
2022-07-31T02:50:54.951Z,101045.56
2022-07-31T02:53:22.102Z,101050.84
2022-07-31T02:55:50.514Z,101049.03
2022-07-31T02:58:17.139Z,101053.50
2022-07-31T03:00:43.764Z,101054.59
2022-07-31T03:03:10.290Z,101050.25
2022-07-31T03:05:36.782Z,101050.19
2022-07-31T03:08:03.326Z,101059.75
2022-07-31T03:10:29.954Z,101043.94
2022-07-31T03:12:58.261Z,101051.66
2022-07-31T03:15:27.379Z,101030.59
2022-07-31T03:17:54.865Z,101042.13
2022-07-31T03:20:22.274Z,101044.91
2022-07-31T03:22:49.620Z,101041.41
2022-07-31T03:25:21.923Z,101042.25
2022-07-31T03:27:55.948Z,101040.75
2022-07-31T03:30:26.552Z,101046.84
2022-07-31T03:32:54.918Z,101042.47
2022-07-31T03:35:22.319Z,101033.97
2022-07-31T03:37:49.533Z,101038.34
2022-07-31T03:40:16.066Z,101037.56
2022-07-31T03:42:43.378Z,101040.13
2022-07-31T03:45:12.117Z,101049.66
2022-07-31T03:47:38.660Z,101041.88
2022-07-31T03:50:06.665Z,101039.22
2022-07-31T03:52:33.490Z,101040.13
2022-07-31T03:55:00.066Z,101040.25
2022-07-31T03:57:29.053Z,101049.00
2022-07-31T03:59:59.331Z,101044.59
2022-07-31T04:02:27.447Z,101040.25
2022-07-31T04:04:55.178Z,101038.50
2022-07-31T04:07:21.643Z,101035.03
2022-07-31T04:09:48.269Z,101033.19
2022-07-31T04:12:14.989Z,101036.63
2022-07-31T04:14:41.691Z,101044.53
2022-07-31T04:17:08.570Z,101040.13
2022-07-31T04:19:35.218Z,101044.53
2022-07-31T04:22:02.546Z,101038.25
2022-07-31T04:24:29.290Z,101042.66
2022-07-31T04:26:56.971Z,101044.47
2022-07-31T04:29:24.236Z,101039.25
2022-07-31T04:31:51.012Z,101043.66
2022-07-31T04:34:17.730Z,101032.38
2022-07-31T04:36:44.226Z,101037.50
2022-07-31T04:39:10.715Z,101037.72
2022-07-31T04:41:37.305Z,101032.34
2022-07-31T04:44:03.851Z,101033.97
2022-07-31T04:46:30.358Z,101027.69
2022-07-31T04:48:56.973Z,101033.69
2022-07-31T04:51:24.743Z,101025.13
2022-07-31T04:53:52.354Z,101032.19
2022-07-31T04:56:37.316Z,101034.88
2022-07-31T04:59:09.500Z,101030.75
2022-07-31T05:01:36.573Z,101024.50
2022-07-31T05:04:03.561Z,101039.31
2022-07-31T05:06:35.362Z,101030.44
2022-07-31T05:09:05.553Z,101019.81
2022-07-31T05:11:36.352Z,101029.44
2022-07-31T05:14:05.173Z,101032.03
2022-07-31T05:16:33.575Z,101028.69
2022-07-31T05:19:00.300Z,101009.34
2022-07-31T05:21:27.187Z,101012.16
2022-07-31T05:23:55.077Z,101024.25
2022-07-31T05:26:22.026Z,101024.31
2022-07-31T05:28:49.614Z,101031.06
2022-07-31T05:31:18.205Z,101032.41
2022-07-31T05:33:45.582Z,101029.78
2022-07-31T05:36:12.775Z,101026.28
2022-07-31T05:38:39.693Z,101018.22
2022-07-31T05:41:06.332Z,101017.19
2022-07-31T05:43:33.119Z,101022.47
2022-07-31T05:45:59.728Z,101012.09
2022-07-31T05:48:26.185Z,101021.75
2022-07-31T05:50:52.768Z,101018.09
2022-07-31T05:53:20.333Z,101025.91
2022-07-31T05:55:49.125Z,101021.44
2022-07-31T05:58:17.195Z,101014.03
2022-07-31T06:00:46.315Z,101014.84
2022-07-31T06:03:13.434Z,101018.16
2022-07-31T06:05:41.175Z,101012.84
2022-07-31T06:08:09.622Z,101015.00
2022-07-31T06:10:37.373Z,101010.00
2022-07-31T06:13:05.259Z,101004.53
2022-07-31T06:15:36.354Z,101007.69
2022-07-31T06:18:04.028Z,101000.66
2022-07-31T06:20:30.981Z,100998.75
2022-07-31T06:22:57.582Z,100991.66
2022-07-31T06:25:24.231Z,101003.03
2022-07-31T06:27:59.207Z,101001.16
2022-07-31T06:30:27.996Z,101003.81
2022-07-31T06:32:54.724Z,100996.78
2022-07-31T06:35:21.265Z,100994.75
2022-07-31T06:37:47.851Z,100991.38
2022-07-31T06:40:14.578Z,100990.25
2022-07-31T06:42:41.906Z,100985.03
2022-07-31T06:45:09.358Z,100996.84
2022-07-31T06:47:35.984Z,100989.56
2022-07-31T06:50:03.646Z,100996.84
2022-07-31T06:52:30.127Z,100989.53
2022-07-31T06:54:56.607Z,100988.53
2022-07-31T06:57:23.115Z,100982.75
2022-07-31T06:59:49.621Z,100975.81
2022-07-31T07:02:16.382Z,100974.50
2022-07-31T07:04:56.320Z,100971.72
2022-07-31T07:07:31.657Z,100968.88
2022-07-31T07:09:58.852Z,100981.50
2022-07-31T07:12:25.371Z,100979.59
2022-07-31T07:14:53.505Z,100995.88
2022-07-31T07:17:20.027Z,100985.44
2022-07-31T07:19:46.695Z,100978.00
2022-07-31T07:22:31.982Z,100978.38
2022-07-31T07:25:00.352Z,100977.28
2022-07-31T07:27:27.013Z,100970.97
2022-07-31T07:29:53.523Z,100975.69
2022-07-31T07:32:20.139Z,100975.28
2022-07-31T07:34:46.607Z,100981.03
2022-07-31T07:37:13.254Z,100967.00
2022-07-31T07:39:39.722Z,100970.72
2022-07-31T07:42:06.656Z,100974.03
2022-07-31T07:44:34.060Z,100970.44
2022-07-31T07:47:00.531Z,100967.16
2022-07-31T07:49:27.100Z,100968.63
2022-07-31T07:51:59.152Z,100968.03
2022-07-31T07:54:36.336Z,100963.88
2022-07-31T07:57:02.913Z,100957.56
2022-07-31T07:59:29.401Z,100950.59
2022-07-31T08:01:56.391Z,100948.69
2022-07-31T08:04:22.908Z,100940.84
2022-07-31T08:06:49.377Z,100939.69
2022-07-31T08:09:15.903Z,100942.78
2022-07-31T08:11:42.578Z,100943.25
2022-07-31T08:14:09.588Z,100928.22
2022-07-31T08:16:36.092Z,100933.63
2022-07-31T08:19:02.707Z,100930.53
2022-07-31T08:21:29.225Z,100928.19
2022-07-31T08:23:55.819Z,100921.66
2022-07-31T08:26:22.705Z,100936.50
2022-07-31T08:28:54.849Z,100920.06
2022-07-31T08:31:22.662Z,100928.16
2022-07-31T08:33:49.171Z,100926.28
2022-07-31T08:36:15.805Z,100932.16
2022-07-31T08:38:42.291Z,100930.44
2022-07-31T08:41:08.817Z,100926.44
2022-07-31T08:44:00.618Z,100931.31
2022-07-31T08:46:24.569Z,100933.03
2022-07-31T08:48:54.482Z,100939.84
2022-07-31T08:51:24.026Z,100928.69
2022-07-31T08:53:54.489Z,100922.75
2022-07-31T08:56:22.117Z,100917.41
2022-07-31T08:58:48.690Z,100921.25
2022-07-31T09:01:15.372Z,100924.31
2022-07-31T09:03:42.210Z,100918.09
2022-07-31T09:06:08.751Z,100914.34
2022-07-31T09:08:36.949Z,100914.06
2022-07-31T09:11:09.212Z,100907.09
2022-07-31T09:13:36.022Z,100910.94
2022-07-31T09:16:03.930Z,100911.16
2022-07-31T09:18:31.205Z,100911.13
2022-07-31T09:20:57.695Z,100911.03
2022-07-31T09:23:26.538Z,100920.44
2022-07-31T09:25:55.716Z,100912.44
2022-07-31T09:28:35.718Z,100910.63
2022-07-31T09:31:04.347Z,100914.25
2022-07-31T09:33:32.014Z,100897.69
2022-07-31T09:35:59.769Z,100911.09
2022-07-31T09:38:44.706Z,100908.09
2022-07-31T09:41:56.398Z,100905.38
2022-07-31T09:44:10.156Z,100895.72
2022-07-31T09:46:41.360Z,100907.75
2022-07-31T09:49:08.057Z,100904.31
2022-07-31T09:51:54.138Z,100902.97
2022-07-31T09:54:25.673Z,100896.72
2022-07-31T09:56:54.784Z,100896.75
2022-07-31T09:59:21.402Z,100898.41
2022-07-31T10:01:49.022Z,100891.72
2022-07-31T10:04:20.661Z,100887.59
2022-07-31T10:06:49.230Z,100890.00
2022-07-31T10:09:18.983Z,100877.34
2022-07-31T10:11:48.680Z,100890.47
2022-07-31T10:14:24.042Z,100893.47
2022-07-31T10:16:56.290Z,100886.50
2022-07-31T10:19:23.671Z,100893.56
2022-07-31T10:21:59.708Z,100892.69
2022-07-31T10:24:30.124Z,100897.13
2022-07-31T10:27:10.518Z,100887.72
2022-07-31T10:29:39.355Z,100891.06
2022-07-31T10:32:07.704Z,100884.94
2022-07-31T10:34:35.272Z,100903.38
2022-07-31T10:37:15.103Z,100896.94
2022-07-31T10:40:03.854Z,100899.84
2022-07-31T10:42:48.578Z,100895.50
2022-07-31T10:45:17.356Z,100885.56
2022-07-31T10:48:13.385Z,100886.66
2022-07-31T10:50:39.913Z,100885.28
2022-07-31T10:53:12.588Z,100885.00
2022-07-31T10:55:39.697Z,100889.22
2022-07-31T10:58:15.468Z,100887.38
2022-07-31T11:00:43.108Z,100899.00
2022-07-31T11:03:16.706Z,100883.84
2022-07-31T11:06:02.549Z,100886.47
2022-07-31T11:08:44.467Z,100889.00
2022-07-31T11:11:11.497Z,100887.84
2022-07-31T11:13:58.104Z,100867.88
2022-07-31T11:16:29.076Z,100877.53
2022-07-31T11:19:06.851Z,100883.38
2022-07-31T11:21:39.753Z,100882.56
2022-07-31T11:24:17.283Z,100873.59
2022-07-31T11:26:51.492Z,100866.50
2022-07-31T11:29:59.799Z,100858.78
2022-07-31T11:32:26.439Z,100865.09
2022-07-31T11:34:55.408Z,100852.03
2022-07-31T11:37:35.296Z,100851.97
2022-07-31T11:40:13.605Z,100847.94
2022-07-31T11:42:59.782Z,100858.22
2022-07-31T11:45:33.476Z,100852.28
2022-07-31T11:48:12.394Z,100851.22
2022-07-31T11:50:44.590Z,100850.91
2022-07-31T11:53:12.055Z,100856.91
2022-07-31T11:55:48.750Z,100858.84
2022-07-31T11:58:16.878Z,100853.88
2022-07-31T12:00:53.630Z,100859.56
2022-07-31T12:03:23.501Z,100852.00
2022-07-31T12:05:54.995Z,100854.69
2022-07-31T12:08:24.232Z,100856.91
2022-07-31T12:10:54.672Z,100850.13
2022-07-31T12:13:22.664Z,100848.75
2022-07-31T12:16:09.435Z,100838.59
2022-07-31T12:18:59.052Z,100850.81
2022-07-31T12:21:37.652Z,100837.19
2022-07-31T12:24:12.511Z,100829.16
2022-07-31T12:26:42.869Z,100838.97
2022-07-31T12:29:11.509Z,100833.28
2022-07-31T12:31:49.776Z,100835.44
2022-07-31T12:34:30.191Z,100831.31
2022-07-31T12:36:58.714Z,100829.81
2022-07-31T12:39:53.781Z,100827.47
2022-07-31T12:42:30.342Z,100822.97
2022-07-31T12:44:58.916Z,100821.72
2022-07-31T12:47:31.701Z,100820.28
2022-07-31T12:49:59.336Z,100824.28
2022-07-31T12:52:31.415Z,100809.38
2022-07-31T12:54:58.707Z,100826.19
2022-07-31T12:57:26.208Z,100813.69
2022-07-31T12:59:54.438Z,100824.59
2022-07-31T13:02:24.267Z,100823.47
2022-07-31T13:04:50.771Z,100829.56
2022-07-31T13:07:17.326Z,100830.63
2022-07-31T13:09:44.988Z,100818.19
2022-07-31T13:12:31.468Z,100827.50
2022-07-31T13:14:57.958Z,100824.44
2022-07-31T13:17:24.826Z,100826.38
2022-07-31T13:19:51.277Z,100823.84
2022-07-31T13:22:20.133Z,100815.63
2022-07-31T13:24:47.062Z,100819.03
2022-07-31T13:27:14.635Z,100820.91
2022-07-31T13:29:41.362Z,100821.31
2022-07-31T13:32:08.927Z,100813.03
2022-07-31T13:34:35.969Z,100814.50
2022-07-31T13:37:02.828Z,100799.59
2022-07-31T13:39:29.549Z,100813.94
2022-07-31T13:41:55.967Z,100803.75
2022-07-31T13:44:22.422Z,100796.25
2022-07-31T13:46:48.937Z,100795.66
2022-07-31T13:49:15.640Z,100789.94
2022-07-31T13:51:42.268Z,100796.44
2022-07-31T13:54:08.783Z,100797.75
2022-07-31T13:56:42.350Z,100799.50
2022-07-31T13:59:11.669Z,100795.03
2022-07-31T14:02:02.775Z,100801.09
2022-07-31T14:04:32.378Z,100804.81
2022-07-31T14:07:01.344Z,100797.38
2022-07-31T14:09:30.410Z,100797.09
2022-07-31T14:11:57.066Z,100791.06
2022-07-31T14:14:24.015Z,100787.06
2022-07-31T14:16:51.003Z,100790.47
2022-07-31T14:19:17.719Z,100803.47
2022-07-31T14:21:56.057Z,100789.38
2022-07-31T14:24:24.389Z,100799.47
2022-07-31T14:26:50.843Z,100794.16
2022-07-31T14:29:17.485Z,100799.25
2022-07-31T14:31:43.954Z,100794.59
2022-07-31T14:34:10.471Z,100794.66
2022-07-31T14:36:36.950Z,100798.09
2022-07-31T14:39:03.533Z,100798.66
2022-07-31T14:41:32.678Z,100793.59
2022-07-31T14:43:59.389Z,100787.13
2022-07-31T14:46:25.883Z,100782.38
2022-07-31T14:48:52.521Z,100791.91
2022-07-31T14:51:19.483Z,100778.63
2022-07-31T14:53:46.831Z,100778.50
2022-07-31T14:56:13.513Z,100778.03
2022-07-31T14:58:57.821Z,100763.06
2022-07-31T15:01:26.870Z,100767.44
2022-07-31T15:03:57.888Z,100769.19
2022-07-31T15:06:49.264Z,100759.41
2022-07-31T15:09:11.321Z,100767.47
2022-07-31T15:12:00.526Z,100758.66
2022-07-31T15:14:24.422Z,100760.25
2022-07-31T15:16:50.910Z,100755.72
2022-07-31T15:19:17.643Z,100753.75
2022-07-31T15:22:15.827Z,100742.03
2022-07-31T15:24:34.623Z,100740.28
2022-07-31T15:27:01.947Z,100739.84
2022-07-31T15:30:05.554Z,100737.34
2022-07-31T15:32:17.799Z,100730.72
2022-07-31T15:34:44.914Z,100738.44
2022-07-31T15:37:11.558Z,100740.66
2022-07-31T15:40:02.502Z,100740.16
2022-07-31T15:42:31.867Z,100723.13
2022-07-31T15:44:58.472Z,100730.97
2022-07-31T15:47:25.253Z,100726.34
2022-07-31T15:49:51.813Z,100720.81
2022-07-31T15:52:19.554Z,100717.06
2022-07-31T15:54:47.526Z,100716.94
2022-07-31T15:57:19.350Z,100720.53
2022-07-31T15:59:46.569Z,100710.88
2022-07-31T16:02:13.451Z,100708.50
2022-07-31T16:04:52.534Z,100700.47
2022-07-31T16:08:30.982Z,100702.00
2022-07-31T16:10:17.939Z,100697.00
2022-07-31T16:12:45.692Z,100687.13
2022-07-31T16:15:12.930Z,100682.50
2022-07-31T16:17:40.274Z,100680.72
2022-07-31T16:20:20.632Z,100676.78
2022-07-31T16:23:00.822Z,100681.47
2022-07-31T16:25:29.068Z,100666.00
2022-07-31T16:27:55.889Z,100671.88
2022-07-31T16:30:22.908Z,100665.19
2022-07-31T16:32:50.067Z,100662.59
2022-07-31T16:35:16.655Z,100659.00
2022-07-31T16:37:51.016Z,100647.56
2022-07-31T16:40:28.929Z,100656.06
2022-07-31T16:43:49.453Z,100657.88
2022-07-31T16:45:55.094Z,100667.69
2022-07-31T16:48:21.858Z,100646.34
2022-07-31T16:50:54.095Z,100651.09
2022-07-31T16:54:12.125Z,100648.44
2022-07-31T16:56:12.937Z,100637.00
2022-07-31T16:58:39.804Z,100641.91
2022-07-31T17:01:06.369Z,100632.66
2022-07-31T17:04:01.650Z,100631.66
2022-07-31T17:06:35.885Z,100626.78
2022-07-31T17:09:16.266Z,100636.22
2022-07-31T17:11:46.522Z,100634.75
2022-07-31T17:14:13.101Z,100643.16
2022-07-31T17:16:43.459Z,100645.81
2022-07-31T17:19:13.201Z,100628.75
2022-07-31T17:21:43.967Z,100642.44
2022-07-31T17:24:15.856Z,100636.31
2022-07-31T17:26:43.570Z,100649.03
2022-07-31T17:29:10.163Z,100661.09
2022-07-31T17:31:36.664Z,100656.31
2022-07-31T17:34:07.303Z,100650.66
2022-07-31T17:36:35.878Z,100659.91
2022-07-31T17:39:03.416Z,100657.03
2022-07-31T17:41:30.466Z,100678.69
2022-07-31T17:43:58.095Z,100690.84
2022-07-31T17:46:29.338Z,100688.63
2022-07-31T17:49:04.905Z,100703.94
2022-07-31T17:51:32.210Z,100710.69
2022-07-31T17:53:59.266Z,100715.56
2022-07-31T17:56:26.652Z,100713.69
2022-07-31T17:58:53.317Z,100693.44
2022-07-31T18:01:19.877Z,100695.81
2022-07-31T18:03:46.437Z,100700.31
2022-07-31T18:06:12.947Z,100699.63
2022-07-31T18:08:39.442Z,100700.53
2022-07-31T18:11:09.399Z,100694.03
2022-07-31T18:13:48.174Z,100705.38
2022-07-31T18:16:17.511Z,100708.00
2022-07-31T18:18:44.861Z,100711.13
2022-07-31T18:21:11.984Z,100712.84
2022-07-31T18:23:47.149Z,100717.81
2022-07-31T18:26:15.135Z,100722.16
2022-07-31T18:28:43.127Z,100717.44
2022-07-31T18:31:15.530Z,100712.16
2022-07-31T18:33:57.615Z,100725.28
2022-07-31T18:36:24.108Z,100732.28
2022-07-31T18:38:52.046Z,100732.09
2022-07-31T18:41:23.054Z,100731.50
2022-07-31T18:43:50.201Z,100729.56
2022-07-31T18:46:17.004Z,100736.81
2022-07-31T18:48:44.415Z,100724.25
2022-07-31T18:51:11.390Z,100731.72
2022-07-31T18:53:37.925Z,100732.13
2022-07-31T18:56:04.890Z,100731.09
2022-07-31T18:58:31.931Z,100734.91
2022-07-31T19:00:58.761Z,100731.94
2022-07-31T19:03:26.588Z,100737.19
2022-07-31T19:05:54.625Z,100737.16
2022-07-31T19:08:21.788Z,100735.38
2022-07-31T19:10:55.561Z,100740.00
2022-07-31T19:13:23.554Z,100743.44
2022-07-31T19:15:53.223Z,100741.78
2022-07-31T19:18:24.377Z,100744.13
2022-07-31T19:21:15.945Z,100724.50
2022-07-31T19:23:43.355Z,100740.50
2022-07-31T19:26:09.857Z,100740.97
2022-07-31T19:28:38.064Z,100740.97
2022-07-31T19:31:04.551Z,100745.03
2022-07-31T19:33:31.376Z,100736.06
2022-07-31T19:36:01.938Z,100747.28
2022-07-31T19:38:31.141Z,100749.34
2022-07-31T19:40:57.801Z,100757.69
2022-07-31T19:43:24.324Z,100749.88
2022-07-31T19:46:10.741Z,100760.63
2022-07-31T19:48:39.629Z,100763.72
2022-07-31T19:51:06.535Z,100751.06
2022-07-31T19:53:33.105Z,100756.50
2022-07-31T19:56:01.885Z,100754.16
2022-07-31T19:58:28.396Z,100758.34
2022-07-31T20:00:54.935Z,100753.72
2022-07-31T20:03:21.525Z,100756.97
2022-07-31T20:05:48.028Z,100768.44
2022-07-31T20:08:14.491Z,100768.78
2022-07-31T20:10:41.034Z,100778.78
2022-07-31T20:13:07.514Z,100765.78
2022-07-31T20:15:51.537Z,100772.00
2022-07-31T20:18:27.582Z,100766.13
2022-07-31T20:21:03.679Z,100773.56
2022-07-31T20:23:31.100Z,100770.97
2022-07-31T20:25:58.628Z,100766.13
2022-07-31T20:28:26.459Z,100764.28
2022-07-31T20:30:53.318Z,100764.22
2022-07-31T20:33:20.302Z,100765.88
2022-07-31T20:35:49.213Z,100762.84
2022-07-31T20:38:20.481Z,100761.69
2022-07-31T20:40:53.776Z,100756.31
2022-07-31T20:43:26.475Z,100760.41
2022-07-31T20:45:53.728Z,100757.00
2022-07-31T20:48:23.871Z,100765.22
2022-07-31T20:50:51.203Z,100750.47
2022-07-31T20:53:17.709Z,100763.50
2022-07-31T20:55:49.330Z,100768.09
2022-07-31T20:58:18.010Z,100761.91
2022-07-31T21:00:45.436Z,100758.25
2022-07-31T21:03:12.021Z,100767.25
2022-07-31T21:05:38.588Z,100763.72
2022-07-31T21:08:05.491Z,100765.44
2022-07-31T21:10:32.028Z,100761.94
2022-07-31T21:12:58.576Z,100758.75
2022-07-31T21:15:40.721Z,100771.72
2022-07-31T21:18:08.148Z,100765.56
2022-07-31T21:20:51.384Z,100760.16
2022-07-31T21:23:22.054Z,100767.19
2022-07-31T21:25:48.882Z,100760.00
2022-07-31T21:28:15.624Z,100767.84
2022-07-31T21:30:42.283Z,100767.00
2022-07-31T21:33:09.922Z,100770.72
2022-07-31T21:35:37.564Z,100770.97
2022-07-31T21:38:05.014Z,100774.41
2022-07-31T21:40:36.049Z,100770.25
2022-07-31T21:43:03.426Z,100767.19
2022-07-31T21:45:51.035Z,100770.22
2022-07-31T21:48:19.713Z,100776.16
2022-07-31T21:50:46.674Z,100762.88
2022-07-31T21:53:14.206Z,100763.22
2022-07-31T21:55:41.037Z,100775.53
2022-07-31T21:58:08.884Z,100768.72
2022-07-31T22:00:35.496Z,100776.66
2022-07-31T22:03:02.856Z,100773.31
2022-07-31T22:05:48.723Z,100785.44
2022-07-31T22:08:15.279Z,100773.00
2022-07-31T22:10:42.130Z,100769.47
2022-07-31T22:13:08.742Z,100769.31
2022-07-31T22:15:55.560Z,100771.06
2022-07-31T22:18:22.092Z,100774.28
2022-07-31T22:20:48.727Z,100772.41
2022-07-31T22:23:15.534Z,100759.41
2022-07-31T22:25:42.957Z,100781.09
2022-07-31T22:28:09.967Z,100765.44
2022-07-31T22:30:36.646Z,100769.91
2022-07-31T22:33:04.852Z,100770.81
2022-07-31T22:35:32.460Z,100769.75
2022-07-31T22:37:58.979Z,100776.47
2022-07-31T22:40:25.616Z,100779.09
2022-07-31T22:42:57.453Z,100773.25
2022-07-31T22:45:25.279Z,100780.44
2022-07-31T22:47:52.035Z,100779.22
2022-07-31T22:50:18.588Z,100774.59
2022-07-31T22:52:45.156Z,100775.97
2022-07-31T22:55:13.598Z,100782.72
2022-07-31T22:57:43.618Z,100778.19
2022-07-31T23:00:13.167Z,100774.66
2022-07-31T23:02:41.203Z,100788.59
2022-07-31T23:05:08.976Z,100790.09
2022-07-31T23:07:35.616Z,100791.75
2022-07-31T23:10:02.420Z,100792.03
2022-07-31T23:12:29.632Z,100789.25
2022-07-31T23:14:56.461Z,100783.38
2022-07-31T23:17:23.628Z,100790.13
2022-07-31T23:19:54.191Z,100784.69
2022-07-31T23:22:33.798Z,100793.16
2022-07-31T23:25:05.232Z,100787.72
2022-07-31T23:27:33.095Z,100785.91
2022-07-31T23:30:00.029Z,100777.09
2022-07-31T23:32:27.690Z,100785.72
2022-07-31T23:34:54.546Z,100781.16
2022-07-31T23:37:21.260Z,100779.94
2022-07-31T23:39:47.773Z,100777.47
2022-07-31T23:42:33.181Z,100767.53
2022-07-31T23:44:59.754Z,100779.13
2022-07-31T23:47:27.967Z,100781.38
2022-07-31T23:50:11.790Z,100775.59
2022-07-31T23:52:38.296Z,100774.03
2022-07-31T23:55:05.061Z,100774.72
2022-07-31T23:57:34.161Z,100786.19
